Time;durP1;ratioP1;P1;durP2;ratioP2;P2;SDS_P1;SDS_P2;PMS_P1;PMS_P2;Temp;Humidity;BMP_temperature;BMP_pressure;BME280_temperature;BME280_humidity;BME280_pressure;Samples;Min_cycle;Max_cycle;Signal;HPM_P1;HPM_P2
2021/01/13 00:00:44;;;;;;;10.55;7.55;;;;;;;-1.65;94.28;98073.27;1790086;79;21196;-72
2021/01/13 00:03:12;;;;;;;10.08;7.20;;;;;;;-1.64;94.32;98072.38;1774116;80;22230;-72
2021/01/13 00:05:41;;;;;;;10.05;7.22;;;;;;;-1.60;94.34;98071.45;1767550;80;21009;-71
2021/01/13 00:08:08;;;;;;;8.33;6.45;;;;;;;-1.57;94.34;98078.17;1767256;80;21100;-72
2021/01/13 00:10:35;;;;;;;10.18;6.67;;;;;;;-1.51;94.39;98072.06;1786832;79;24345;-72
2021/01/13 00:13:03;;;;;;;8.40;6.70;;;;;;;-1.51;94.39;98072.06;1789527;79;21060;-72
2021/01/13 00:15:30;;;;;;;8.93;6.62;;;;;;;-1.47;94.41;98074.97;1772386;79;21099;-72
2021/01/13 00:17:57;;;;;;;10.23;6.62;;;;;;;-1.45;94.36;98077.05;1782240;80;20989;-72
2021/01/13 00:20:25;;;;;;;9.60;6.83;;;;;;;-1.42;94.38;98082.09;1775768;80;21219;-71
2021/01/13 00:22:52;;;;;;;11.33;6.20;;;;;;;-1.41;94.35;98065.84;1772716;80;21211;-71
2021/01/13 00:25:19;;;;;;;7.65;5.45;;;;;;;-1.40;94.38;98072.63;1773004;80;21589;-71
2021/01/13 00:27:47;;;;;;;8.83;6.90;;;;;;;-1.35;94.40;98074.64;1770033;80;21069;-72
2021/01/13 00:30:16;;;;;;;12.88;6.37;;;;;;;-1.33;94.37;98074.17;1789056;80;21034;-72
2021/01/13 00:32:44;;;;;;;10.05;5.67;;;;;;;-1.32;94.34;98073.28;1781332;79;21147;-72
2021/01/13 00:35:13;;;;;;;8.65;5.30;;;;;;;-1.31;94.37;98074.98;1777661;79;21210;-72
2021/01/13 00:37:41;;;;;;;7.75;5.00;;;;;;;-1.29;94.35;98078.32;1769868;80;21064;-72
2021/01/13 00:40:11;;;;;;;9.65;4.92;;;;;;;-1.26;94.31;98072.28;1770741;79;21578;-72
2021/01/13 00:42:49;;;;;;;4.72;3.77;;;;;;;-1.26;94.35;98071.87;1780095;80;21155;-72
2021/01/13 00:45:18;;;;;;;;;;;;;;;-1.26;94.33;98082.11;1787218;80;21758;-72
2021/01/13 00:47:53;;;;;;;5.15;4.05;;;;;;;-1.25;94.35;98077.38;1778490;80;21214;-72
2021/01/13 00:50:21;;;;;;;6.80;3.98;;;;;;;-1.27;94.21;98077.84;1772901;80;21274;-72
2021/01/13 00:52:49;;;;;;;;;;;;;;;-1.30;94.19;98074.09;1781302;80;21088;-72
2021/01/13 00:55:18;;;;;;;7.87;4.10;;;;;;;-1.29;94.23;98075.76;1774207;79;21367;-72
2021/01/13 00:57:50;;;;;;;4.65;3.40;;;;;;;-1.26;94.35;98078.27;1786273;79;21223;-71
2021/01/13 01:00:19;;;;;;;5.50;4.12;;;;;;;-1.25;94.26;98081.22;1780495;79;21567;-72
2021/01/13 01:02:47;;;;;;;7.72;4.12;;;;;;;-1.24;94.31;98084.17;1776193;80;21602;-71
2021/01/13 01:05:14;;;;;;;5.05;3.72;;;;;;;-1.20;94.40;98090.91;1785222;79;21223;-72
2021/01/13 01:07:44;;;;;;;5.62;3.87;;;;;;;-1.17;94.44;98086.98;1808318;78;21194;-72
2021/01/13 01:10:23;;;;;;;6.03;3.90;;;;;;;-1.15;94.44;98092.91;1804267;78;21135;-71
2021/01/13 01:12:50;;;;;;;;;;;;;;;-1.17;94.24;98080.58;1818857;78;21562;-72
2021/01/13 01:15:17;;;;;;;4.33;3.63;;;;;;;-1.18;94.28;98099.38;1804116;78;20157;-72
2021/01/13 01:17:44;;;;;;;5.47;3.58;;;;;;;-1.18;94.29;98095.97;1805602;78;21328;-72
2021/01/13 01:20:13;;;;;;;5.03;3.60;;;;;;;-1.16;94.39;98102.73;1807778;78;21175;-72
2021/01/13 01:22:55;;;;;;;6.00;3.10;;;;;;;-1.16;94.41;98107.86;1814447;78;21123;-72
2021/01/13 01:25:25;;;;;;;4.33;3.77;;;;;;;-1.14;94.42;98108.67;1806904;78;21212;-72
2021/01/13 01:27:54;;;;;;;5.45;3.40;;;;;;;-1.12;94.43;98113.77;1764987;80;21092;-71
2021/01/13 01:30:26;;;;;;;5.28;3.17;;;;;;;-1.09;94.48;98117.94;1806493;78;21064;-72
2021/01/13 01:32:55;;;;;;;5.30;2.90;;;;;;;-1.08;94.46;98125.59;1769552;80;21242;-72
2021/01/13 01:35:22;;;;;;;5.55;3.27;;;;;;;-1.08;94.46;98122.20;1775308;80;21538;-72
2021/01/13 01:37:49;;;;;;;4.97;3.60;;;;;;;-1.06;94.49;98128.97;1809311;78;21569;-72
2021/01/13 01:40:19;;;;;;;5.00;3.15;;;;;;;-1.05;94.47;98123.41;1767181;79;21012;-72
2021/01/13 01:42:54;;;;;;;5.37;2.65;;;;;;;-1.03;94.46;98125.50;1772348;80;21049;-72
2021/01/13 01:45:25;;;;;;;4.10;3.62;;;;;;;-1.01;94.44;98128.83;1807106;78;21131;-72
2021/01/13 01:48:07;;;;;;;6.33;3.58;;;;;;;-1.01;94.47;98126.27;1770559;80;21182;-72
2021/01/13 01:50:40;;;;;;;4.75;2.70;;;;;;;-1.02;94.39;98126.72;1773532;79;22167;-72
2021/01/13 01:53:52;;;;;;;3.42;2.75;;;;;;;-1.02;94.34;98127.16;1777068;79;21017;-72
2021/01/13 01:56:28;;;;;;;4.72;3.22;;;;;;;-1.04;94.34;98130.20;1808341;78;21657;-72
2021/01/13 01:59:12;;;;;;;3.92;2.90;;;;;;;-1.05;94.34;98132.37;1799327;78;21127;-72
2021/01/13 02:01:49;;;;;;;4.05;2.85;;;;;;;-1.07;94.34;98135.40;1810075;78;21585;-72
2021/01/13 02:04:32;;;;;;;2.95;2.30;;;;;;;-1.09;94.39;98135.88;1766212;79;21218;-72
2021/01/13 02:07:12;;;;;;;3.05;2.55;;;;;;;-1.07;94.47;98136.69;1793142;78;21266;-72
2021/01/13 02:09:40;;;;;;;4.42;2.80;;;;;;;-1.08;94.41;98126.05;1802801;78;20984;-72
2021/01/13 02:12:13;;;;;;;6.42;3.52;;;;;;;-1.07;94.50;98134.13;1814357;78;21013;-72
2021/01/13 02:14:42;;;;;;;3.40;2.27;;;;;;;-1.03;94.56;98125.50;1810860;78;21044;-72
2021/01/13 02:17:11;;;;;;;3.65;2.75;;;;;;;-1.02;94.49;98129.28;1812684;78;21242;-72
2021/01/13 02:19:52;;;;;;;5.53;2.52;;;;;;;-1.01;94.50;98131.39;1813127;78;21022;-72
2021/01/13 02:22:25;;;;;;;3.85;2.85;;;;;;;-1.00;94.48;98127.97;1766169;80;21017;-72
2021/01/13 02:25:16;;;;;;;3.77;2.90;;;;;;;-1.00;94.49;98125.41;1772925;80;21144;-72
2021/01/13 02:28:23;;;;;;;4.10;2.70;;;;;;;-1.00;94.41;98129.25;1805934;78;20988;-72
2021/01/13 02:31:30;;;;;;;3.05;2.67;;;;;;;-1.03;94.28;98130.62;1705912;83;22569;-72
2021/01/13 02:34:17;;;;;;;3.98;3.42;;;;;;;-1.11;94.14;98132.53;1687890;83;21794;-71
2021/01/13 02:37:31;;;;;;;3.72;3.00;;;;;;;-1.17;94.19;98127.96;1678646;85;21140;-72
2021/01/13 02:39:58;;;;;;;6.72;4.10;;;;;;;-1.22;94.28;98132.36;1673770;84;21192;-72
2021/01/13 02:42:29;;;;;;;3.35;2.87;;;;;;;-1.24;94.39;98125.14;1679543;84;21024;-73
2021/01/13 02:45:12;;;;;;;3.55;2.75;;;;;;;-1.25;94.45;98123.47;1691352;84;21100;-71
2021/01/13 02:48:01;;;;;;;4.10;2.90;;;;;;;-1.24;94.48;98125.14;1693896;84;21165;-71
2021/01/13 02:50:33;;;;;;;4.35;2.92;;;;;;;-1.26;94.33;98136.30;1687127;84;21605;-71
2021/01/13 02:53:11;;;;;;;3.27;2.70;;;;;;;-1.35;94.19;98122.84;1690936;84;21269;-72
2021/01/13 02:55:53;;;;;;;3.50;3.10;;;;;;;-1.39;94.17;98131.94;1691336;84;21146;-71
2021/01/13 02:58:31;;;;;;;4.50;2.77;;;;;;;-1.41;94.16;98136.25;1689248;84;21148;-72
2021/01/13 03:01:01;;;;;;;3.80;2.77;;;;;;;-1.48;93.98;98143.69;1712055;83;21069;-72
2021/01/13 03:03:32;;;;;;;3.25;2.67;;;;;;;-1.56;93.93;98140.47;1674476;85;21180;-72
2021/01/13 03:06:10;;;;;;;3.75;3.45;;;;;;;-1.61;93.90;98154.20;1670001;85;21638;-72
2021/01/13 03:09:10;;;;;;;6.22;3.30;;;;;;;-1.69;93.87;98145.86;1688866;84;21721;-72
2021/01/13 03:11:40;;;;;;;4.35;3.50;;;;;;;-1.76;93.81;98144.34;1692397;84;21236;-72
2021/01/13 03:14:20;;;;;;;3.98;3.15;;;;;;;-1.81;94.06;98149.99;1689796;84;21154;-72
2021/01/13 03:17:03;;;;;;;4.50;3.20;;;;;;;-1.82;94.28;98149.56;1671229;84;21146;-71
2021/01/13 03:20:10;;;;;;;6.35;4.05;;;;;;;-1.81;94.37;98157.67;1696267;83;21186;-71
2021/01/13 03:22:46;;;;;;;4.50;3.10;;;;;;;-1.80;94.46;98149.10;1692753;84;21243;-72
2021/01/13 03:25:15;;;;;;;5.10;3.80;;;;;;;-1.80;94.44;98143.98;1676378;84;21674;-72
2021/01/13 03:27:45;;;;;;;5.17;3.77;;;;;;;-1.80;94.41;98142.27;1688196;84;21286;-71
2021/01/13 03:30:17;;;;;;;4.75;3.40;;;;;;;-1.78;94.45;98149.92;1677289;83;21198;-72
2021/01/13 03:32:58;;;;;;;6.65;3.87;;;;;;;-1.79;94.37;98143.13;1676242;84;21196;-72
2021/01/13 03:35:42;;;;;;;8.10;3.42;;;;;;;-1.78;94.38;98136.29;1686722;83;21264;-72
2021/01/13 03:38:18;;;;;;;4.67;3.67;;;;;;;-1.79;94.31;98136.73;1731123;81;22090;-71
2021/01/13 03:40:49;;;;;;;5.00;3.60;;;;;;;-1.80;94.27;98137.59;1736461;81;21255;-72
2021/01/13 03:43:22;;;;;;;5.62;3.27;;;;;;;-1.82;94.21;98139.33;1739846;81;21707;-72
2021/01/13 03:45:53;;;;;;;6.90;3.58;;;;;;;-1.86;94.16;98141.58;1746404;81;21256;-72
2021/01/13 03:48:44;;;;;;;5.35;3.37;;;;;;;-1.88;94.15;98139.48;1741326;81;21560;-72
2021/01/13 03:51:46;;;;;;;4.67;3.50;;;;;;;-1.91;94.13;98142.11;1747307;81;21389;-72
2021/01/13 03:54:25;;;;;;;4.90;3.45;;;;;;;-1.88;94.24;98144.59;1874435;76;22816;-70
2021/01/13 03:57:05;;;;;;;4.92;3.12;;;;;;;-1.92;94.20;98150.67;1839297;77;21205;-71
2021/01/13 03:59:52;;;;;;;4.50;3.00;;;;;;;-1.97;94.17;98147.37;1836527;76;21566;-71
2021/01/13 04:02:23;;;;;;;5.53;3.70;;;;;;;-1.95;94.31;98150.74;1846041;77;21007;-72
2021/01/13 04:05:04;;;;;;;6.80;3.27;;;;;;;-1.93;94.34;98161.75;1844411;77;20985;-71
2021/01/13 04:07:41;;;;;;;5.70;3.50;;;;;;;-1.91;94.34;98162.58;1839001;77;21048;-71
2021/01/13 04:10:14;;;;;;;4.47;3.20;;;;;;;-1.90;94.39;98164.27;1840731;77;20969;-71
2021/01/13 04:13:18;;;;;;;5.95;3.27;;;;;;;-1.85;94.51;98168.83;1833422;77;21598;-71
2021/01/13 04:15:48;;;;;;;5.45;3.80;;;;;;;-1.80;94.54;98167.02;1833877;77;21052;-71
2021/01/13 04:18:17;;;;;;;5.75;3.42;;;;;;;-1.75;94.56;98166.48;1846698;77;21008;-71
2021/01/13 04:20:45;;;;;;;4.35;3.27;;;;;;;-1.73;94.50;98164.73;1821066;77;21079;-72
2021/01/13 04:23:12;;;;;;;4.30;2.90;;;;;;;-1.70;94.50;98171.05;1846115;77;21155;-71
2021/01/13 04:25:39;;;;;;;5.00;3.47;;;;;;;-1.70;94.43;98172.34;1842714;77;22340;-71
2021/01/13 04:28:08;;;;;;;5.72;3.85;;;;;;;-1.69;94.38;98167.61;1844560;77;20984;-71
2021/01/13 04:30:38;;;;;;;4.30;2.80;;;;;;;-1.68;94.41;98173.16;1841049;77;21102;-70
2021/01/13 04:33:06;;;;;;;4.78;3.27;;;;;;;-1.64;94.43;98170.91;1847089;77;21601;-71
2021/01/13 04:35:34;;;;;;;6.42;3.35;;;;;;;-1.60;94.47;98176.38;1840262;77;21182;-70
2021/01/13 04:38:04;;;;;;;5.37;3.17;;;;;;;-1.59;94.41;98175.49;1841583;77;21190;-72
2021/01/13 04:40:38;;;;;;;5.22;2.90;;;;;;;-1.59;94.33;98177.22;1841748;77;20977;-70
2021/01/13 04:43:10;;;;;;;5.78;3.30;;;;;;;-1.61;94.31;98179.80;1829224;77;21001;-73
2021/01/13 04:45:42;;;;;;;5.37;3.12;;;;;;;-1.60;94.41;98185.34;1857934;77;21067;-72
2021/01/13 04:48:17;;;;;;;4.65;3.35;;;;;;;-1.58;94.45;98181.00;1853020;77;21139;-71
2021/01/13 04:50:48;;;;;;;6.22;3.58;;;;;;;-1.54;94.45;98191.16;1859163;77;21131;-70
2021/01/13 04:53:24;;;;;;;3.87;2.95;;;;;;;-1.53;94.45;98189.87;1844488;76;22197;-71
2021/01/13 04:55:57;;;;;;;6.90;3.77;;;;;;;-1.50;94.42;98194.91;1851595;77;21186;-71
2021/01/13 04:58:47;;;;;;;4.67;3.40;;;;;;;-1.48;94.45;98191.05;1852239;77;21210;-71
2021/01/13 05:01:52;;;;;;;4.78;3.25;;;;;;;-1.44;94.54;98192.65;1840102;77;21074;-71
2021/01/13 05:04:47;;;;;;;3.55;3.12;;;;;;;-1.40;94.57;98186.56;1853081;77;22362;-71
2021/01/13 05:07:41;;;;;;;5.05;3.02;;;;;;;-1.40;94.55;98181.03;1840872;77;21079;-71
2021/01/13 05:10:19;;;;;;;5.35;2.42;;;;;;;-1.37;94.45;98185.23;1848414;77;20937;-71
2021/01/13 05:12:58;;;;;;;6.95;2.92;;;;;;;-1.35;94.54;98175.78;1844831;77;21013;-71
2021/01/13 05:15:31;;;;;;;3.55;2.72;;;;;;;-1.33;94.54;98193.68;1850941;77;21233;-72
2021/01/13 05:18:08;;;;;;;5.50;2.80;;;;;;;-1.30;94.54;98197.00;1840946;77;21258;-71
2021/01/13 05:20:41;;;;;;;6.35;2.72;;;;;;;-1.28;94.55;98194.42;1847949;77;21242;-71
2021/01/13 05:23:11;;;;;;;8.20;3.67;;;;;;;-1.30;94.42;98189.32;1841163;77;21016;-71
2021/01/13 05:25:52;;;;;;;5.58;2.60;;;;;;;-1.28;94.51;98189.30;1847445;77;20992;-71
2021/01/13 05:28:23;;;;;;;5.28;3.95;;;;;;;-1.26;94.50;98187.10;1839034;77;20989;-71
2021/01/13 05:30:59;;;;;;;5.72;3.10;;;;;;;-1.30;94.29;98195.72;1837459;77;21197;-71
2021/01/13 05:36:08;;;;;;;5.45;2.92;;;;;;;-1.33;94.32;98194.52;1842474;76;23054;-71
2021/01/13 05:39:02;;;;;;;5.25;2.27;;;;;;;-1.35;94.36;98201.38;1795403;78;20961;-71
2021/01/13 05:41:29;;;;;;;3.22;2.40;;;;;;;-1.34;94.51;98194.13;1812608;78;21195;-71
2021/01/13 05:43:56;;;;;;;4.78;2.33;;;;;;;-1.29;94.65;98194.00;1818867;78;26863;-71
2021/01/13 05:46:23;;;;;;;4.95;2.00;;;;;;;-1.26;94.65;98201.19;1801881;78;26755;-71
2021/01/13 05:48:53;;;;;;;5.37;2.30;;;;;;;-1.26;94.62;98189.66;1819816;77;20945;-71
2021/01/13 05:51:28;;;;;;;4.05;2.00;;;;;;;-1.28;94.50;98179.89;1808138;77;20996;-71
2021/01/13 05:53:58;;;;;;;4.58;2.50;;;;;;;-1.30;94.50;98176.52;1801132;78;21142;-71
2021/01/13 05:56:26;;;;;;;4.37;2.50;;;;;;;-1.32;94.44;98179.98;1791519;78;21257;-71
2021/01/13 05:59:05;;;;;;;5.45;2.80;;;;;;;-1.35;94.40;98180.91;1806620;77;20988;-71
2021/01/13 06:01:49;;;;;;;2.47;1.80;;;;;;;-1.37;94.38;98183.95;1811721;78;21566;-71
2021/01/13 06:04:17;;;;;;;4.28;2.08;;;;;;;-1.40;94.41;98190.41;1795654;78;21585;-71
2021/01/13 06:07:13;;;;;;;5.75;2.25;;;;;;;-1.43;94.45;98196.88;1801439;77;21205;-71
2021/01/13 06:09:42;;;;;;;5.00;2.87;;;;;;;-1.43;94.58;98193.04;1799230;78;21396;-71
2021/01/13 06:12:19;;;;;;;5.78;2.15;;;;;;;-1.40;94.68;98194.24;1796017;78;21558;-71
2021/01/13 06:14:52;;;;;;;3.90;2.27;;;;;;;-1.34;94.84;98201.80;1803765;77;21186;-71
2021/01/13 06:17:25;;;;;;;6.40;2.60;;;;;;;-1.29;94.88;98199.95;1801154;78;21554;-72
2021/01/13 06:19:57;;;;;;;3.27;2.22;;;;;;;-1.21;94.94;98199.33;1790362;78;21184;-70
2021/01/13 06:22:32;;;;;;;5.90;2.80;;;;;;;-1.16;94.89;98202.63;1810711;78;21012;-71
2021/01/13 06:25:04;;;;;;;7.83;3.02;;;;;;;-1.11;94.95;98204.25;1803128;77;21008;-71
2021/01/13 06:28:06;;;;;;;7.33;3.10;;;;;;;-1.07;94.90;98206.68;1811713;77;21601;-72
2021/01/13 06:30:42;;;;;;;5.20;3.10;;;;;;;-1.03;94.84;98212.59;1806981;78;21162;-71
2021/01/13 06:33:19;;;;;;;4.65;2.33;;;;;;;-1.02;94.82;98215.09;1796539;77;22092;-71
2021/01/13 06:36:08;;;;;;;4.95;2.25;;;;;;;-1.01;94.74;98203.13;1808995;77;20988;-71
2021/01/13 06:38:47;;;;;;;6.75;2.52;;;;;;;-1.01;94.66;98208.25;1816672;77;21189;-72
2021/01/13 06:41:15;;;;;;;5.70;2.50;;;;;;;-1.01;94.60;98205.69;1769845;78;21071;-72
2021/01/13 06:44:01;;;;;;;6.00;2.70;;;;;;;-1.01;94.58;98208.25;1806434;77;21051;-71
2021/01/13 06:46:29;;;;;;;7.42;2.75;;;;;;;-1.00;94.60;98209.95;1810949;77;22093;-71
2021/01/13 06:49:12;;;;;;;5.45;2.90;;;;;;;-0.99;94.65;98222.70;1806168;78;21138;-72
2021/01/13 06:51:50;;;;;;;4.03;2.65;;;;;;;-0.97;94.67;98225.25;1813046;77;21165;-71
2021/01/13 06:54:20;;;;;;;5.28;2.10;;;;;;;-0.98;94.63;98236.35;1800719;78;20984;-72
2021/01/13 06:56:54;;;;;;;6.22;2.40;;;;;;;-0.95;94.67;98233.74;1759262;80;21162;-72
2021/01/13 06:59:23;;;;;;;5.97;2.20;;;;;;;-0.93;94.74;98240.92;1719867;81;21216;-72
2021/01/13 07:01:57;;;;;;;10.40;3.10;;;;;;;-0.88;94.81;98242.11;1752029;80;21593;-72
2021/01/13 07:04:26;;;;;;;5.67;2.30;;;;;;;-0.84;94.78;98247.13;1739383;80;21250;-72
2021/01/13 07:07:08;;;;;;;3.00;1.87;;;;;;;-0.82;94.71;98246.63;1768696;80;21214;-71
2021/01/13 07:09:43;;;;;;;5.00;2.33;;;;;;;-0.83;94.62;98250.08;1738126;81;20997;-71
2021/01/13 07:12:26;;;;;;;4.75;2.17;;;;;;;-0.80;94.67;98251.28;1739375;81;21395;-71
2021/01/13 07:14:56;;;;;;;7.10;2.40;;;;;;;-0.80;94.57;98242.31;1744387;81;21089;-73
2021/01/13 07:17:26;;;;;;;8.25;3.60;;;;;;;-0.78;94.62;98247.42;1738057;80;21175;-73
2021/01/13 07:19:56;;;;;;;6.37;2.92;;;;;;;-0.75;94.65;98249.45;1739440;80;21077;-72
2021/01/13 07:22:25;;;;;;;5.72;3.08;;;;;;;-0.72;94.61;98251.94;1739351;81;21136;-73
2021/01/13 07:24:55;;;;;;;5.15;2.30;;;;;;;-0.66;94.69;98250.10;1738393;81;21397;-73
2021/01/13 07:27:22;;;;;;;7.87;2.67;;;;;;;-0.63;94.62;98257.71;1739409;81;21021;-73
2021/01/13 07:29:50;;;;;;;;;;;;;;;-0.58;94.64;98258.44;1741981;79;21582;-73
2021/01/13 07:32:27;;;;;;;5.92;2.65;;;;;;;-0.51;94.66;98267.64;1734470;81;20490;-73
2021/01/13 07:34:55;;;;;;;4.97;2.62;;;;;;;-0.47;94.61;98273.11;1738678;81;21608;-74
2021/01/13 07:37:24;;;;;;;4.12;2.33;;;;;;;-0.44;94.53;98282.00;1745995;81;21715;-73
2021/01/13 07:40:11;;;;;;;6.67;2.15;;;;;;;-0.41;94.50;98280.64;1750276;81;21030;-73
2021/01/13 07:42:41;;;;;;;8.25;2.47;;;;;;;-0.40;94.49;98278.45;1742493;79;21099;-73
2021/01/13 07:45:20;;;;;;;6.97;2.37;;;;;;;-0.36;94.45;98280.08;1738098;81;21049;-73
2021/01/13 07:48:15;;;;;;;6.17;2.70;;;;;;;-0.31;94.42;98280.80;1743399;79;22327;-73
2021/01/13 07:50:55;;;;;;;5.47;2.00;;;;;;;-0.27;94.44;98277.27;1742311;81;21223;-73
2021/01/13 07:53:40;;;;;;;6.55;2.52;;;;;;;-0.27;94.26;98277.27;1745610;81;21183;-73
2021/01/13 07:56:23;;;;;;;4.75;2.27;;;;;;;-0.29;94.14;98286.71;1738900;79;21045;-77
2021/01/13 07:59:44;;;;;;;4.97;2.60;;;;;;;-0.26;94.29;98284.06;1744047;80;21061;-73
2021/01/13 08:02:44;;;;;;;3.22;2.10;;;;;;;-0.18;94.32;98288.16;1736317;81;21203;-72
2021/01/13 08:06:06;;;;;;;7.85;2.55;;;;;;;-0.06;94.37;98294.23;1733174;81;21488;-73
2021/01/13 08:09:23;;;;;;;5.83;2.27;;;;;;;0.01;94.30;98285.95;1743866;79;21163;-73
2021/01/13 08:12:16;;;;;;;7.55;2.37;;;;;;;0.03;94.16;98287.59;1739646;81;21613;-73
2021/01/13 08:15:13;;;;;;;5.12;1.70;;;;;;;0.09;94.17;98286.13;1734227;80;21646;-73
2021/01/13 08:18:12;;;;;;;4.30;2.05;;;;;;;0.12;94.04;98288.61;1742757;81;21558;-73
2021/01/13 08:21:24;;;;;;;5.50;2.55;;;;;;;0.12;94.00;98289.89;1733914;79;21210;-73
2021/01/13 08:24:06;;;;;;;4.47;2.40;;;;;;;0.11;93.95;98283.09;1740765;79;21116;-73
2021/01/13 08:26:48;;;;;;;5.92;2.30;;;;;;;0.14;93.99;98288.13;1734116;81;21034;-73
2021/01/13 08:29:27;;;;;;;3.65;1.90;;;;;;;0.24;94.19;98291.27;1734591;81;21687;-73
2021/01/13 08:32:17;;;;;;;7.12;2.17;;;;;;;0.30;94.06;98283.38;1730503;81;21188;-73
2021/01/13 08:35:12;;;;;;;7.70;3.52;;;;;;;0.32;93.91;98283.35;1732523;81;21338;-72
2021/01/13 08:37:54;;;;;;;9.35;2.62;;;;;;;0.37;93.92;98281.50;1731102;81;21057;-73
2021/01/13 08:40:31;;;;;;;6.83;2.95;;;;;;;0.45;93.81;98279.55;1733966;81;21116;-72
2021/01/13 08:43:18;;;;;;;3.92;2.00;;;;;;;0.44;93.50;98284.27;1731670;81;21171;-72
2021/01/13 08:46:01;;;;;;;5.78;3.00;;;;;;;0.40;93.49;98287.38;1740215;79;21788;-73
2021/01/13 08:48:32;;;;;;;;;;;;;;;0.41;93.58;98281.79;1735262;81;21200;-72
2021/01/13 08:51:07;;;;;;;11.12;4.80;;;;;;;0.41;93.44;98292.06;1739911;81;20187;-72
2021/01/13 08:53:34;;;;;;;8.35;5.15;;;;;;;0.39;93.57;98291.25;1738277;81;21053;-72
2021/01/13 08:56:03;;;;;;;7.90;3.90;;;;;;;0.48;93.85;98290.14;1743913;81;21602;-72
2021/01/13 08:58:33;;;;;;;8.40;4.22;;;;;;;0.54;93.79;98292.11;1743570;79;21151;-73
2021/01/13 09:01:08;;;;;;;8.25;3.95;;;;;;;0.59;93.66;98292.82;1749618;81;21204;-72
2021/01/13 09:03:43;;;;;;;8.03;2.90;;;;;;;0.65;93.72;98295.20;1735140;81;21152;-72
2021/01/13 09:06:24;;;;;;;7.40;2.92;;;;;;;0.76;93.67;98295.33;1738671;81;21033;-72
2021/01/13 09:08:54;;;;;;;5.50;2.70;;;;;;;0.82;93.51;98291.28;1749920;81;21017;-73
2021/01/13 09:11:39;;;;;;;8.45;3.05;;;;;;;0.91;93.42;98285.84;1739622;79;21045;-73
2021/01/13 09:14:20;;;;;;;7.28;3.15;;;;;;;0.97;93.33;98293.36;1739136;81;21215;-74
2021/01/13 09:16:56;;;;;;;4.37;2.67;;;;;;;1.00;93.15;98295.00;1753301;81;21180;-73
2021/01/13 09:19:35;;;;;;;20.82;10.78;;;;;;;0.99;93.09;98291.59;1745455;80;21899;-73
2021/01/13 09:22:06;;;;;;;31.15;12.30;;;;;;;1.01;93.25;98294.09;1731214;81;21236;-73
2021/01/13 09:24:37;;;;;;;25.08;12.65;;;;;;;1.07;93.20;98299.91;1748491;79;21651;-74
2021/01/13 09:27:06;;;;;;;32.98;17.07;;;;;;;1.10;93.12;98299.80;1735041;81;21223;-73
2021/01/13 09:29:51;;;;;;;14.18;6.78;;;;;;;1.09;93.00;98301.99;1738580;81;21009;-74
2021/01/13 09:32:23;;;;;;;14.90;8.43;;;;;;;1.17;93.05;98308.60;1734249;79;21167;-72
2021/01/13 09:34:55;;;;;;;21.25;13.55;;;;;;;1.23;93.26;98309.69;1743577;79;21704;-75
2021/01/13 09:37:23;;;;;;;31.68;22.07;;;;;;;1.32;93.13;98317.13;1743379;81;21194;-72
2021/01/13 09:40:00;;;;;;;20.17;11.85;;;;;;;1.41;93.16;98316.82;1754653;80;21315;-74
2021/01/13 09:42:44;;;;;;;13.45;6.83;;;;;;;1.52;93.24;98307.02;1738491;80;21143;-73
2021/01/13 09:45:12;;;;;;;13.10;7.17;;;;;;;1.56;93.05;98303.44;1764960;80;21028;-74
2021/01/13 09:47:39;;;;;;;;;;;;;;;1.61;92.92;98310.17;1777509;79;20992;-73
2021/01/13 09:50:11;;;;;;;9.93;4.92;;;;;;;1.68;93.09;98311.63;1761959;80;21596;-74
2021/01/13 09:52:43;;;;;;;8.43;4.65;;;;;;;1.71;92.82;98308.95;1728197;82;21257;-74
2021/01/13 09:55:12;;;;;;;11.93;5.50;;;;;;;1.75;92.84;98307.52;1726385;82;21034;-73
2021/01/13 09:57:39;;;;;;;13.62;5.67;;;;;;;1.73;92.65;98307.17;1726710;81;21221;-71
2021/01/13 10:00:12;;;;;;;41.02;21.20;;;;;;;1.71;92.57;98301.23;1723594;82;21176;-71
2021/01/13 10:02:42;;;;;;;15.38;7.50;;;;;;;1.67;92.74;98305.66;1727206;82;21188;-73
2021/01/13 10:05:10;;;;;;;7.70;3.77;;;;;;;1.73;92.73;98304.60;1729127;81;21492;-72
2021/01/13 10:07:51;;;;;;;8.23;2.95;;;;;;;1.62;92.30;98306.70;1729276;82;21571;-72
2021/01/13 10:10:31;;;;;;;6.05;1.80;;;;;;;1.65;92.75;98312.58;1733076;82;21149;-71
2021/01/13 10:13:15;;;;;;;4.97;2.42;;;;;;;1.75;92.95;98310.55;1717641;82;21049;-71
2021/01/13 10:16:11;;;;;;;7.42;2.27;;;;;;;1.86;93.08;98313.59;1723611;82;21203;-70
2021/01/13 10:19:01;;;;;;;8.78;3.60;;;;;;;1.88;92.74;98318.25;1736661;82;21564;-72
2021/01/13 10:21:40;;;;;;;4.20;2.00;;;;;;;1.76;92.31;98307.06;1727957;82;21116;-72
2021/01/13 10:24:16;;;;;;;8.23;3.80;;;;;;;1.68;92.33;98309.06;1760166;80;21027;-71
2021/01/13 10:26:51;;;;;;;20.95;9.05;;;;;;;1.75;92.65;98307.97;1757029;80;21013;-71
2021/01/13 10:29:34;;;;;;;18.85;8.15;;;;;;;1.74;92.46;98305.02;1759851;80;21734;-71
2021/01/13 10:32:14;;;;;;;14.53;6.55;;;;;;;1.79;92.63;98306.96;1729778;81;21160;-72
2021/01/13 10:35:02;;;;;;;9.60;4.37;;;;;;;1.82;92.56;98306.88;1741292;81;21044;-73
2021/01/13 10:37:58;;;;;;;12.30;5.45;;;;;;;1.82;92.45;98304.31;1753535;80;21013;-73
2021/01/13 10:40:35;;;;;;;10.45;6.10;;;;;;;1.75;92.12;98297.68;1732245;81;21056;-73
2021/01/13 10:43:14;;;;;;;5.75;2.65;;;;;;;1.60;92.14;98300.76;1765360;80;21087;-73
2021/01/13 10:46:08;;;;;;;20.10;8.78;;;;;;;1.56;92.45;98300.86;1754901;80;21236;-72
2021/01/13 10:48:48;;;;;;;26.00;12.37;;;;;;;1.51;92.59;98292.48;1760726;80;21040;-72
2021/01/13 10:51:19;;;;;;;17.95;9.33;;;;;;;1.49;92.59;98294.26;1739160;80;20996;-71
2021/01/13 10:53:49;;;;;;;11.70;5.25;;;;;;;1.43;92.49;98294.47;1743602;81;21225;-72
2021/01/13 10:56:20;;;;;;;8.80;4.37;;;;;;;1.32;92.36;98304.27;1738851;80;21837;-72
2021/01/13 10:58:47;;;;;;;7.30;3.20;;;;;;;1.28;92.58;98298.36;1731690;81;22893;-72
2021/01/13 11:01:17;;;;;;;6.45;3.37;;;;;;;1.27;92.81;98301.00;1726546;81;21215;-72
2021/01/13 11:03:44;;;;;;;8.13;3.08;;;;;;;1.25;92.69;98300.20;1746380;80;21081;-72
2021/01/13 11:06:25;;;;;;;8.13;4.75;;;;;;;1.20;92.68;98302.91;1733617;81;21038;-71
2021/01/13 11:08:53;;;;;;;15.35;7.83;;;;;;;1.18;92.72;98301.30;1740468;80;21136;-72
2021/01/13 11:11:21;;;;;;;12.47;6.45;;;;;;;1.20;92.88;98299.50;1742247;81;21201;-72
2021/01/13 11:13:48;;;;;;;12.05;5.87;;;;;;;1.23;92.97;98291.69;1735911;81;21591;-72
2021/01/13 11:16:15;;;;;;;10.03;5.12;;;;;;;1.23;92.90;98291.69;1741930;80;21571;-72
2021/01/13 11:18:42;;;;;;;6.92;3.98;;;;;;;1.25;92.87;98295.05;1737990;81;21176;-72
2021/01/13 11:21:10;;;;;;;;;;;;;;;1.29;92.88;98286.37;1737180;81;21603;-71
2021/01/13 11:23:45;;;;;;;22.98;12.10;;;;;;;1.34;92.82;98276.75;1734886;80;22171;-71
2021/01/13 11:26:12;;;;;;;25.40;13.60;;;;;;;1.36;92.79;98277.55;1744190;81;21574;-71
2021/01/13 11:28:40;;;;;;;19.77;10.48;;;;;;;1.30;92.51;98272.61;1732927;80;21587;-71
2021/01/13 11:31:08;;;;;;;12.80;7.10;;;;;;;1.24;92.47;98285.67;1736980;81;21148;-71
2021/01/13 11:33:35;;;;;;;14.85;6.17;;;;;;;1.20;92.61;98276.36;1744686;81;21002;-71
2021/01/13 11:36:04;;;;;;;9.30;5.00;;;;;;;1.15;92.73;98287.23;1736685;80;21671;-72
2021/01/13 11:38:42;;;;;;;9.25;4.25;;;;;;;1.04;92.69;98281.17;1737438;80;21088;-71
2021/01/13 11:41:42;;;;;;;6.55;3.60;;;;;;;0.95;92.59;98280.99;1738677;80;21215;-72
2021/01/13 11:44:37;;;;;;;8.88;4.25;;;;;;;0.86;92.61;98285.14;1732209;81;21180;-71
2021/01/13 11:47:23;;;;;;;11.15;4.40;;;;;;;0.85;93.04;98283.47;1688039;84;21240;-71
2021/01/13 11:49:59;;;;;;;6.47;3.15;;;;;;;0.88;93.05;98280.80;1689643;83;21245;-71
2021/01/13 11:52:32;;;;;;;6.17;2.92;;;;;;;0.87;92.90;98281.70;1718136;83;21292;-70
2021/01/13 11:55:00;;;;;;;8.10;4.10;;;;;;;0.83;92.89;98281.39;1712718;82;21145;-71
2021/01/13 11:57:31;;;;;;;8.30;3.60;;;;;;;0.86;93.02;98285.14;1693131;83;21691;-71
2021/01/13 12:00:26;;;;;;;8.23;4.40;;;;;;;0.83;92.90;98282.67;1699730;83;21604;-70
2021/01/13 12:03:01;;;;;;;10.78;4.67;;;;;;;0.86;93.07;98290.28;1710343;81;22259;-70
2021/01/13 12:05:37;;;;;;;11.78;6.05;;;;;;;0.88;93.07;98289.35;1713602;81;21718;-71
2021/01/13 12:08:15;;;;;;;9.65;4.78;;;;;;;1.03;93.34;98284.16;1885536;75;22740;-70
2021/01/13 12:10:49;;;;;;;10.58;4.03;;;;;;;1.05;93.17;98280.28;1854419;77;21008;-70
2021/01/13 12:13:28;;;;;;;7.83;3.77;;;;;;;1.02;92.96;98275.23;1839915;77;21198;-71
2021/01/13 12:16:04;;;;;;;9.43;4.47;;;;;;;1.02;92.99;98272.21;1843251;76;21543;-70
2021/01/13 12:18:44;;;;;;;8.70;4.60;;;;;;;0.96;92.80;98274.15;1849241;77;21015;-70
2021/01/13 12:21:23;;;;;;;9.80;4.20;;;;;;;0.89;92.74;98262.75;1854218;77;21008;-69
2021/01/13 12:23:53;;;;;;;14.30;7.28;;;;;;;0.87;92.75;98268.86;1842697;77;20991;-70